createdAt,value
2023-09-27T00:01:25.766Z,12.57
2023-09-27T00:03:52.797Z,10.95
2023-09-27T00:06:19.580Z,11.80
2023-09-27T00:08:46.461Z,12.23
2023-09-27T00:11:13.598Z,9.57
2023-09-27T00:13:40.506Z,9.75
2023-09-27T00:16:07.456Z,12.07
2023-09-27T00:18:34.663Z,9.57
2023-09-27T00:21:01.549Z,13.75
2023-09-27T00:23:28.391Z,10.80
2023-09-27T00:25:55.284Z,12.02
2023-09-27T00:28:22.197Z,9.85
2023-09-27T00:30:51.664Z,9.05
2023-09-27T00:33:18.578Z,9.48
2023-09-27T00:35:49.870Z,8.50
2023-09-27T00:38:16.714Z,9.52
2023-09-27T00:40:50.154Z,11.15
2023-09-27T00:43:30.863Z,13.25
2023-09-27T00:46:05.232Z,11.68
2023-09-27T00:48:33.560Z,10.00
2023-09-27T00:51:01.636Z,9.07
2023-09-27T00:53:32.658Z,9.50
2023-09-27T00:55:59.649Z,12.65
2023-09-27T00:58:26.916Z,10.48
2023-09-27T01:00:53.852Z,11.30
2023-09-27T01:03:20.724Z,13.13
2023-09-27T01:05:48.735Z,10.45
2023-09-27T01:08:15.740Z,10.27
2023-09-27T01:10:43.658Z,10.02
2023-09-27T01:13:10.851Z,11.77
2023-09-27T01:15:38.111Z,11.15
2023-09-27T01:18:05.063Z,12.20
2023-09-27T01:20:36.778Z,11.75
2023-09-27T01:23:07.418Z,12.40
2023-09-27T01:25:38.922Z,11.30
2023-09-27T01:28:08.708Z,13.15
2023-09-27T01:30:36.626Z,11.13
2023-09-27T01:33:06.816Z,10.65
2023-09-27T01:35:35.393Z,12.77
2023-09-27T01:38:03.580Z,8.90
2023-09-27T01:40:33.732Z,10.27
2023-09-27T01:43:02.288Z,10.38
2023-09-27T01:45:33.320Z,8.88
2023-09-27T01:48:01.870Z,8.93
2023-09-27T01:50:31.455Z,8.93
2023-09-27T01:52:58.661Z,9.88
2023-09-27T01:55:26.253Z,8.30
2023-09-27T01:57:54.017Z,9.45
2023-09-27T02:00:21.641Z,9.25
2023-09-27T02:02:59.655Z,9.00
2023-09-27T02:05:28.164Z,10.88
2023-09-27T02:07:55.844Z,8.85
2023-09-27T02:10:23.037Z,12.07
2023-09-27T02:12:50.079Z,12.25
2023-09-27T02:15:17.861Z,9.50
2023-09-27T02:17:45.214Z,9.85
2023-09-27T02:20:15.096Z,9.68
2023-09-27T02:22:43.117Z,8.80
2023-09-27T02:25:15.014Z,8.75
2023-09-27T02:27:43.651Z,8.10
2023-09-27T02:30:15.208Z,8.95
2023-09-27T02:32:43.287Z,9.20
2023-09-27T02:35:11.424Z,9.02
2023-09-27T02:37:40.273Z,10.07
2023-09-27T02:40:14.184Z,8.00
2023-09-27T02:42:45.858Z,11.88
2023-09-27T02:45:13.797Z,7.18
2023-09-27T02:47:44.920Z,8.02
2023-09-27T02:50:13.024Z,9.30
2023-09-27T02:52:40.706Z,9.80
2023-09-27T02:55:10.540Z,9.38
2023-09-27T02:57:38.167Z,9.95
2023-09-27T03:00:05.922Z,9.98
2023-09-27T03:02:34.603Z,8.20
2023-09-27T03:05:04.173Z,8.53
2023-09-27T03:07:31.026Z,9.00
2023-09-27T03:09:59.940Z,9.93
2023-09-27T03:12:26.820Z,8.85
2023-09-27T03:14:53.817Z,9.07
2023-09-27T03:17:21.646Z,8.93
2023-09-27T03:19:49.160Z,8.73
2023-09-27T03:22:16.192Z,6.57
2023-09-27T03:24:42.970Z,7.45
2023-09-27T03:27:10.670Z,7.47
2023-09-27T03:29:37.451Z,8.23
2023-09-27T03:32:04.463Z,7.93
2023-09-27T03:34:32.973Z,8.18
2023-09-27T03:36:59.868Z,12.50
2023-09-27T03:39:29.997Z,9.30
2023-09-27T03:41:57.803Z,12.57
2023-09-27T03:44:25.394Z,11.02
2023-09-27T03:46:52.306Z,8.30
2023-09-27T03:49:19.235Z,8.80
2023-09-27T03:51:46.000Z,7.78
2023-09-27T03:54:12.663Z,9.60
2023-09-27T03:56:39.506Z,9.38
2023-09-27T03:59:06.400Z,9.30
2023-09-27T04:01:33.253Z,8.45
2023-09-27T04:04:00.374Z,8.38
2023-09-27T04:06:27.262Z,8.37
2023-09-27T04:08:54.328Z,6.95
2023-09-27T04:11:21.324Z,6.10
2023-09-27T04:13:49.743Z,6.13
2023-09-27T04:16:16.674Z,7.15
2023-09-27T04:18:44.025Z,7.00
2023-09-27T04:21:12.290Z,6.57
2023-09-27T04:23:39.786Z,7.95
2023-09-27T04:26:07.118Z,6.28
2023-09-27T04:28:34.578Z,8.45
2023-09-27T04:31:01.835Z,6.77
2023-09-27T04:33:28.746Z,6.93
2023-09-27T04:35:55.603Z,8.85
2023-09-27T04:38:22.731Z,5.82
2023-09-27T04:40:49.633Z,6.63
2023-09-27T04:43:16.832Z,6.50
2023-09-27T04:45:43.646Z,4.85
2023-09-27T04:48:10.664Z,5.97
2023-09-27T04:50:37.570Z,6.63
2023-09-27T04:53:04.658Z,7.05
2023-09-27T04:55:31.660Z,8.20
2023-09-27T04:57:58.441Z,8.55
2023-09-27T05:00:25.422Z,8.05
2023-09-27T05:02:53.573Z,8.35
2023-09-27T05:05:20.706Z,8.35
2023-09-27T05:07:48.236Z,11.53
2023-09-27T05:10:15.777Z,8.25
2023-09-27T05:12:42.803Z,9.98
2023-09-27T05:15:12.958Z,8.60
2023-09-27T05:17:39.968Z,7.75
2023-09-27T05:20:11.368Z,8.47
2023-09-27T05:22:38.985Z,7.38
2023-09-27T05:25:07.467Z,8.85
2023-09-27T05:27:35.407Z,9.38
2023-09-27T05:30:02.580Z,7.95
2023-09-27T05:32:29.520Z,7.23
2023-09-27T05:34:56.552Z,6.22
2023-09-27T05:37:24.406Z,6.10
2023-09-27T05:39:51.475Z,8.45
2023-09-27T05:42:18.345Z,7.38
2023-09-27T05:44:45.454Z,8.20
2023-09-27T05:47:12.417Z,9.38
2023-09-27T05:49:39.487Z,9.23
2023-09-27T05:52:06.949Z,11.63
2023-09-27T05:54:34.160Z,10.60
2023-09-27T05:57:01.384Z,11.43
2023-09-27T05:59:28.330Z,14.95
2023-09-27T06:01:56.125Z,12.57
2023-09-27T06:04:23.335Z,13.30
2023-09-27T06:06:50.847Z,9.70
2023-09-27T06:09:18.771Z,12.23
2023-09-27T06:11:46.696Z,9.85
2023-09-27T06:14:13.799Z,11.45
2023-09-27T06:16:41.269Z,10.32
2023-09-27T06:19:09.920Z,12.35
2023-09-27T06:21:37.178Z,11.93
2023-09-27T06:24:05.618Z,10.45
2023-09-27T06:26:32.698Z,8.48
2023-09-27T06:29:00.069Z,10.20
2023-09-27T06:31:27.389Z,10.98
2023-09-27T06:33:54.463Z,10.43
2023-09-27T06:36:22.987Z,14.13
2023-09-27T06:38:51.618Z,11.05
2023-09-27T06:41:19.104Z,10.15
2023-09-27T06:43:46.862Z,11.80
2023-09-27T06:46:15.345Z,12.67
2023-09-27T06:48:44.799Z,13.18
2023-09-27T06:51:14.862Z,18.35
2023-09-27T06:53:43.999Z,12.43
2023-09-27T06:56:11.131Z,11.38
2023-09-27T06:58:38.941Z,12.37
2023-09-27T07:01:06.066Z,13.77
2023-09-27T07:03:35.578Z,14.73
2023-09-27T07:06:04.082Z,14.52
2023-09-27T07:08:31.374Z,13.65
2023-09-27T07:11:09.648Z,15.07
2023-09-27T07:13:38.698Z,13.90
2023-09-27T07:16:29.979Z,15.48
2023-09-27T07:19:01.202Z,15.40
2023-09-27T07:21:29.518Z,15.57
2023-09-27T07:23:56.707Z,18.73
2023-09-27T07:26:23.753Z,17.75
2023-09-27T07:28:52.211Z,16.52
2023-09-27T07:31:19.764Z,17.17
2023-09-27T07:33:53.966Z,19.83
2023-09-27T07:36:22.240Z,19.47
2023-09-27T07:38:49.357Z,17.33
2023-09-27T07:41:17.177Z,16.42
2023-09-27T07:43:44.194Z,16.77
2023-09-27T07:46:13.743Z,18.30
2023-09-27T07:48:42.870Z,16.90
2023-09-27T07:51:23.113Z,18.63
2023-09-27T07:53:50.313Z,18.33
2023-09-27T07:56:22.774Z,20.27
2023-09-27T07:58:53.615Z,22.00
2023-09-27T08:01:25.611Z,21.17
2023-09-27T08:03:53.863Z,20.88
2023-09-27T08:06:21.985Z,23.38
2023-09-27T08:08:49.396Z,20.88
2023-09-27T08:11:17.434Z,20.25
2023-09-27T08:13:44.567Z,17.87
2023-09-27T08:16:11.574Z,17.05
2023-09-27T08:18:38.911Z,18.80
2023-09-27T08:21:05.998Z,20.58
2023-09-27T08:23:33.790Z,17.38
2023-09-27T08:26:01.045Z,18.97
2023-09-27T08:28:31.108Z,18.92
2023-09-27T08:31:00.010Z,18.92
2023-09-27T08:33:28.713Z,20.48
2023-09-27T08:35:58.284Z,20.67
2023-09-27T08:38:27.236Z,20.00
2023-09-27T08:40:54.405Z,22.45
2023-09-27T08:43:23.170Z,20.90
2023-09-27T08:45:52.955Z,20.88
2023-09-27T08:48:23.819Z,22.52
2023-09-27T08:50:52.192Z,24.80
2023-09-27T08:53:19.541Z,17.95
2023-09-27T08:55:54.424Z,20.55
2023-09-27T08:58:26.287Z,18.23
2023-09-27T09:00:54.212Z,20.88
2023-09-27T09:03:21.402Z,19.90
2023-09-27T09:05:50.493Z,18.77
2023-09-27T09:08:23.569Z,19.50
2023-09-27T09:10:55.174Z,19.00
2023-09-27T09:13:24.363Z,19.75
2023-09-27T09:15:52.480Z,15.70
2023-09-27T09:18:30.600Z,20.17
2023-09-27T09:21:01.250Z,20.17
2023-09-27T09:23:36.123Z,19.05
2023-09-27T09:26:07.048Z,18.98
2023-09-27T09:28:36.896Z,17.87
2023-09-27T09:31:04.198Z,15.95
2023-09-27T09:33:31.594Z,15.63
2023-09-27T09:35:58.672Z,15.77
2023-09-27T09:38:27.690Z,18.77
2023-09-27T09:40:56.341Z,15.70
2023-09-27T09:43:34.890Z,14.05
2023-09-27T09:46:05.101Z,17.10
2023-09-27T09:48:34.861Z,15.05
2023-09-27T09:51:09.053Z,15.13
2023-09-27T09:53:40.862Z,13.23
2023-09-27T09:59:05.218Z,14.30
2023-09-27T10:01:40.788Z,13.70
2023-09-27T10:04:08.983Z,20.33
2023-09-27T10:06:48.752Z,14.60
2023-09-27T10:09:18.434Z,18.60
2023-09-27T10:11:47.889Z,14.32
2023-09-27T10:14:18.070Z,13.73
2023-09-27T10:16:45.924Z,12.68
2023-09-27T10:19:14.574Z,17.33
2023-09-27T10:22:20.518Z,16.45
2023-09-27T10:24:47.909Z,12.52
2023-09-27T10:27:14.890Z,17.42
2023-09-27T10:29:57.399Z,17.33
2023-09-27T10:32:25.044Z,16.30
2023-09-27T10:34:53.270Z,15.98
2023-09-27T10:37:57.756Z,15.68
2023-09-27T10:40:24.846Z,16.38
2023-09-27T10:42:52.993Z,16.17
2023-09-27T10:45:20.141Z,16.63
2023-09-27T10:47:51.188Z,16.15
2023-09-27T10:50:28.109Z,16.50
2023-09-27T10:52:55.146Z,18.05
2023-09-27T10:55:22.176Z,16.45
2023-09-27T10:57:49.249Z,18.10
2023-09-27T11:00:19.163Z,14.38
2023-09-27T11:02:46.181Z,15.75
2023-09-27T11:05:13.447Z,13.10
2023-09-27T11:07:48.050Z,13.55
2023-09-27T11:10:32.856Z,16.23
2023-09-27T11:13:11.364Z,12.43
2023-09-27T11:15:39.228Z,10.98
2023-09-27T11:18:08.806Z,13.35
2023-09-27T11:20:36.473Z,12.80
2023-09-27T11:23:04.466Z,13.38
2023-09-27T11:25:37.715Z,12.73
2023-09-27T11:28:05.284Z,9.63
2023-09-27T11:30:34.597Z,10.50
2023-09-27T11:33:06.531Z,10.98
2023-09-27T11:35:33.990Z,9.17
2023-09-27T11:38:11.158Z,10.45
2023-09-27T11:40:39.709Z,8.93
2023-09-27T11:43:06.998Z,7.90
2023-09-27T11:45:48.989Z,9.10
2023-09-27T11:48:17.327Z,7.90
2023-09-27T11:50:44.481Z,7.55
2023-09-27T11:53:12.342Z,8.30
2023-09-27T11:55:39.591Z,8.63
2023-09-27T11:58:06.603Z,8.13
2023-09-27T12:00:33.691Z,7.00
2023-09-27T12:03:00.923Z,8.07
2023-09-27T12:05:28.526Z,9.57
2023-09-27T12:07:56.606Z,8.00
2023-09-27T12:10:23.809Z,5.90
2023-09-27T12:12:50.788Z,7.35
2023-09-27T12:15:17.792Z,5.43
2023-09-27T12:17:45.121Z,5.35
2023-09-27T12:20:26.648Z,5.60
2023-09-27T12:22:59.380Z,6.72
2023-09-27T12:25:28.306Z,5.03
2023-09-27T12:27:55.359Z,9.07
2023-09-27T12:30:22.379Z,5.55
2023-09-27T12:32:49.441Z,6.88
2023-09-27T12:35:16.622Z,6.57
2023-09-27T12:37:43.508Z,4.73
2023-09-27T12:40:10.939Z,5.55
2023-09-27T12:42:37.855Z,6.13
2023-09-27T12:45:05.370Z,6.22
2023-09-27T12:47:33.304Z,5.03
2023-09-27T12:50:08.017Z,4.97
2023-09-27T12:52:35.881Z,4.40
2023-09-27T12:55:02.921Z,4.72
2023-09-27T12:57:29.871Z,4.50
2023-09-27T12:59:58.047Z,5.57
2023-09-27T13:02:26.088Z,7.67
2023-09-27T13:04:53.349Z,5.93
2023-09-27T13:07:20.479Z,4.93
2023-09-27T13:09:47.441Z,5.88
2023-09-27T13:12:15.027Z,6.97
2023-09-27T13:14:42.130Z,6.37
2023-09-27T13:17:09.160Z,6.28
2023-09-27T13:19:36.174Z,5.47
2023-09-27T13:22:03.076Z,6.25
2023-09-27T13:24:30.418Z,7.57
2023-09-27T13:26:57.392Z,5.57
2023-09-27T13:29:24.463Z,6.35
2023-09-27T13:31:51.574Z,5.93
2023-09-27T13:34:18.889Z,5.60
2023-09-27T13:36:46.287Z,5.65
2023-09-27T13:39:18.513Z,4.27
2023-09-27T13:41:47.664Z,5.22
2023-09-27T13:44:15.611Z,5.03
2023-09-27T13:46:43.018Z,5.53
2023-09-27T13:49:10.310Z,5.03
2023-09-27T13:51:38.222Z,4.73
2023-09-27T13:54:08.234Z,7.43
2023-09-27T13:56:36.365Z,3.63
2023-09-27T13:59:03.600Z,6.15
2023-09-27T14:01:31.810Z,3.90
2023-09-27T14:04:00.349Z,6.17
2023-09-27T14:06:27.379Z,5.07
2023-09-27T14:08:56.052Z,9.20
2023-09-27T14:11:23.962Z,6.75
2023-09-27T14:13:51.189Z,5.07
2023-09-27T14:16:18.456Z,5.53
2023-09-27T14:18:46.131Z,5.55
2023-09-27T14:21:14.779Z,5.68
2023-09-27T14:23:50.421Z,5.13
2023-09-27T14:26:20.405Z,6.78
2023-09-27T14:28:47.534Z,9.57
2023-09-27T14:31:18.020Z,5.97
2023-09-27T14:33:45.300Z,6.97
2023-09-27T14:36:13.639Z,7.32
2023-09-27T14:38:40.686Z,10.80
2023-09-27T14:41:11.401Z,6.05
2023-09-27T14:43:39.397Z,4.05
2023-09-27T14:46:13.407Z,5.50
2023-09-27T14:48:41.589Z,6.72
2023-09-27T14:51:13.476Z,4.70
2023-09-27T14:53:45.814Z,4.53
2023-09-27T14:56:14.472Z,7.60
2023-09-27T14:58:41.599Z,4.47
2023-09-27T15:01:09.235Z,5.18
2023-09-27T15:03:36.499Z,8.68
2023-09-27T15:06:04.405Z,5.90
2023-09-27T15:08:31.700Z,5.93
2023-09-27T15:10:58.843Z,5.18
2023-09-27T15:13:26.784Z,5.32
2023-09-27T15:15:53.782Z,6.35
2023-09-27T15:18:24.120Z,7.17
2023-09-27T15:20:52.874Z,8.98
2023-09-27T15:23:19.786Z,6.97
2023-09-27T15:25:46.792Z,6.05
2023-09-27T15:28:13.698Z,5.53
2023-09-27T15:30:42.110Z,6.23
2023-09-27T15:33:10.627Z,8.18
2023-09-27T15:35:39.290Z,6.45
2023-09-27T15:38:06.753Z,5.95
2023-09-27T15:40:34.665Z,6.90
2023-09-27T15:43:01.915Z,8.30
2023-09-27T15:45:30.763Z,7.60
2023-09-27T15:47:58.231Z,6.47
2023-09-27T15:50:25.324Z,5.45
2023-09-27T15:52:52.465Z,8.23
2023-09-27T15:55:20.804Z,6.13
2023-09-27T15:57:47.978Z,7.55
2023-09-27T16:00:15.674Z,7.68
2023-09-27T16:02:43.012Z,6.03
2023-09-27T16:05:12.262Z,7.72
2023-09-27T16:07:40.884Z,6.23
2023-09-27T16:10:13.223Z,7.57
2023-09-27T16:12:43.592Z,6.50
2023-09-27T16:15:10.974Z,6.78
2023-09-27T16:17:40.140Z,8.50
2023-09-27T16:20:08.337Z,8.70
2023-09-27T16:22:36.109Z,9.68
2023-09-27T16:25:06.397Z,6.85
2023-09-27T16:27:33.607Z,7.93
2023-09-27T16:30:00.693Z,7.30
2023-09-27T16:32:28.666Z,9.00
2023-09-27T16:34:55.774Z,6.93
2023-09-27T16:37:22.762Z,8.95
2023-09-27T16:39:50.774Z,9.48
2023-09-27T16:42:17.774Z,8.20
2023-09-27T16:44:44.713Z,8.73
2023-09-27T16:47:11.537Z,8.90
2023-09-27T16:49:38.545Z,7.18
2023-09-27T16:52:05.554Z,8.40
2023-09-27T16:54:32.525Z,7.00
2023-09-27T16:57:00.597Z,9.10
2023-09-27T16:59:27.903Z,9.05
2023-09-27T17:01:54.954Z,10.23
2023-09-27T17:04:22.122Z,7.88
2023-09-27T17:06:49.992Z,9.15
2023-09-27T17:09:17.268Z,7.37
2023-09-27T17:11:44.237Z,7.80
2023-09-27T17:14:11.240Z,7.40
2023-09-27T17:16:38.574Z,7.72
2023-09-27T17:19:06.257Z,8.77
2023-09-27T17:21:34.773Z,7.30
2023-09-27T17:24:01.717Z,6.88
2023-09-27T17:26:29.901Z,8.23
2023-09-27T17:28:56.989Z,7.80
2023-09-27T17:31:24.335Z,7.72
2023-09-27T17:33:52.343Z,9.30
2023-09-27T17:36:19.732Z,8.32
2023-09-27T17:38:46.714Z,6.40
2023-09-27T17:41:13.845Z,8.32
2023-09-27T17:43:40.949Z,9.10
2023-09-27T17:46:40.909Z,9.10
2023-09-27T17:49:07.926Z,7.13
2023-09-27T17:51:34.739Z,8.38
2023-09-27T17:54:01.718Z,8.85
2023-09-27T17:56:29.414Z,8.23
2023-09-27T17:58:57.170Z,12.07
2023-09-27T18:01:27.292Z,12.82
2023-09-27T18:03:54.735Z,7.57
2023-09-27T18:06:22.809Z,9.27
2023-09-27T18:08:49.760Z,8.10
2023-09-27T18:11:17.550Z,7.93
2023-09-27T18:13:45.104Z,8.95
2023-09-27T18:16:16.702Z,7.90
2023-09-27T18:18:45.133Z,7.05
2023-09-27T18:21:13.854Z,9.88
2023-09-27T18:23:42.567Z,10.63
2023-09-27T18:26:10.159Z,9.73
2023-09-27T18:28:37.453Z,10.60
2023-09-27T18:31:04.384Z,7.95
2023-09-27T18:33:31.483Z,10.35
2023-09-27T18:35:58.434Z,10.13
2023-09-27T18:38:25.397Z,10.52
2023-09-27T18:40:52.311Z,10.68
2023-09-27T18:43:19.678Z,7.53
2023-09-27T18:45:47.765Z,11.90
2023-09-27T18:48:19.646Z,11.13
2023-09-27T18:50:48.627Z,9.85
2023-09-27T18:53:15.904Z,9.43
2023-09-27T18:55:43.064Z,8.88
2023-09-27T18:58:15.022Z,10.65
2023-09-27T19:00:43.468Z,13.50
2023-09-27T19:03:11.022Z,13.55
2023-09-27T19:05:38.167Z,12.98
2023-09-27T19:08:05.521Z,10.20
2023-09-27T19:10:33.671Z,10.23
2023-09-27T19:13:00.679Z,12.03
2023-09-27T19:15:27.722Z,14.45
2023-09-27T19:17:58.584Z,9.65
2023-09-27T19:20:26.699Z,8.57
2023-09-27T19:22:54.421Z,10.68
2023-09-27T19:25:22.149Z,10.47
2023-09-27T19:27:50.126Z,11.27
2023-09-27T19:30:17.670Z,10.48
2023-09-27T19:32:47.574Z,11.00
2023-09-27T19:35:15.958Z,14.50
2023-09-27T19:37:43.984Z,10.87
2023-09-27T19:40:11.630Z,22.95
2023-09-27T19:42:39.002Z,11.23
2023-09-27T19:45:06.844Z,11.25
2023-09-27T19:47:36.281Z,12.93
2023-09-27T19:50:04.577Z,10.20
2023-09-27T19:52:31.912Z,11.93
2023-09-27T19:54:59.365Z,7.38
2023-09-27T19:57:26.375Z,12.32
2023-09-27T19:59:53.624Z,11.02
2023-09-27T20:02:20.972Z,11.43
2023-09-27T20:04:48.225Z,9.35
2023-09-27T20:07:15.522Z,11.18
2023-09-27T20:09:43.150Z,14.10
2023-09-27T20:12:10.226Z,11.13
2023-09-27T20:14:37.317Z,9.33
2023-09-27T20:17:04.492Z,13.15
2023-09-27T20:19:31.835Z,11.07
2023-09-27T20:21:58.864Z,12.70
2023-09-27T20:24:26.913Z,9.80
2023-09-27T20:26:54.113Z,15.13
2023-09-27T20:29:21.710Z,11.23
2023-09-27T20:31:49.911Z,15.05
2023-09-27T20:34:17.064Z,11.55
2023-09-27T20:36:44.102Z,13.02
2023-09-27T20:39:11.161Z,12.57
2023-09-27T20:41:38.373Z,15.00
2023-09-27T20:44:06.948Z,15.13
2023-09-27T20:46:34.205Z,15.40
2023-09-27T20:49:02.721Z,14.77
2023-09-27T20:51:29.726Z,12.67
2023-09-27T20:53:57.080Z,13.25
2023-09-27T20:56:24.336Z,12.23
2023-09-27T20:58:51.519Z,13.93
2023-09-27T21:01:26.040Z,14.40
2023-09-27T21:03:53.514Z,13.43
2023-09-27T21:06:31.171Z,13.60
2023-09-27T21:09:04.305Z,12.70
2023-09-27T21:11:31.854Z,12.57
2023-09-27T21:14:00.571Z,12.48
2023-09-27T21:16:29.453Z,13.43
2023-09-27T21:18:57.367Z,15.07
2023-09-27T21:21:25.194Z,13.50
2023-09-27T21:23:53.543Z,14.10
2023-09-27T21:26:21.739Z,15.02
2023-09-27T21:28:48.954Z,12.00
2023-09-27T21:31:16.541Z,14.57
2023-09-27T21:33:44.512Z,12.43
2023-09-27T21:36:12.009Z,12.07
2023-09-27T21:38:40.166Z,12.05
2023-09-27T21:41:07.389Z,12.10
2023-09-27T21:43:34.834Z,11.98
2023-09-27T21:46:02.136Z,9.45
2023-09-27T21:48:30.494Z,9.27
2023-09-27T21:50:57.411Z,10.70
2023-09-27T21:53:24.520Z,10.27
2023-09-27T21:55:51.568Z,10.60
2023-09-27T21:58:18.576Z,8.55
2023-09-27T22:00:45.456Z,8.25
2023-09-27T22:03:14.615Z,10.48
2023-09-27T22:05:42.196Z,9.10
2023-09-27T22:08:17.980Z,8.30
2023-09-27T22:10:46.022Z,9.05
2023-09-27T22:13:23.214Z,9.05
2023-09-27T22:15:56.004Z,8.52
2023-09-27T22:18:24.067Z,7.50
2023-09-27T22:20:51.714Z,8.18
2023-09-27T22:23:32.669Z,7.90
2023-09-27T22:26:01.146Z,8.10
2023-09-27T22:28:32.233Z,6.68
2023-09-27T22:31:02.339Z,7.30
2023-09-27T22:33:31.336Z,6.90
2023-09-27T22:35:58.453Z,6.95
2023-09-27T22:38:25.420Z,7.18
2023-09-27T22:40:52.649Z,8.65
2023-09-27T22:43:21.330Z,8.23
2023-09-27T22:45:50.916Z,7.68
2023-09-27T22:48:19.450Z,8.88
2023-09-27T22:50:51.213Z,7.07
2023-09-27T22:53:19.764Z,7.05
2023-09-27T22:55:51.739Z,8.20
2023-09-27T22:58:19.582Z,6.28
2023-09-27T23:00:51.216Z,7.03
2023-09-27T23:03:18.526Z,6.28
2023-09-27T23:05:46.718Z,6.80
2023-09-27T23:08:13.985Z,8.37
2023-09-27T23:10:41.844Z,5.97
2023-09-27T23:13:29.980Z,6.78
2023-09-27T23:15:57.876Z,6.22
2023-09-27T23:18:30.393Z,7.25
2023-09-27T23:20:58.888Z,6.43
2023-09-27T23:23:37.480Z,6.50
2023-09-27T23:26:11.358Z,5.50
2023-09-27T23:28:38.417Z,5.95
2023-09-27T23:31:10.151Z,6.70
2023-09-27T23:33:51.331Z,7.93
2023-09-27T23:36:27.460Z,5.78
2023-09-27T23:38:57.692Z,6.47
2023-09-27T23:41:31.721Z,5.47
2023-09-27T23:44:06.307Z,5.72
2023-09-27T23:46:38.662Z,6.60
2023-09-27T23:49:06.458Z,5.25
2023-09-27T23:51:34.417Z,4.80
2023-09-27T23:54:04.009Z,5.80
2023-09-27T23:56:31.462Z,6.55
2023-09-27T23:59:21.042Z,5.13
